Oak Grove, Oregon
Current Conditions -  °F | °C
As of 5:53 PM on Monday 20 Oct 2014 (Local Time) from KPDX Reporting Station
Light Rain Light Rain  
Wind Chill: 59°   Ceiling: 6500
Heat Index: 59°   Visibility: 6mi
Dew Point: 56°   Wind: 9mph
Humidity: 90%   Direction: 180°S
Pressure: 29.8"   Gusts: NA
Location:  45.42°N, 122.64°W
Report Text: KPDX 210053Z 18008KT 6SM -RA BR FEW030 BKN065 BKN080 15/13 A2980 RMK AO2 SLP090 VIS W-NW 2 1/2 P0006 T01500133
Loading
Personal Weather Stations






























Interactive Weather Map New forecast layout! Learn more

10-Day Weather Forecast

Advertisements
Track Severe Weather on mobile